sensor_id;sensor_type;location;lat;lon;timestamp;temperature;humidity
43772;HTU21D;59066;54.782;32.024;2023-05-01T00:01:02;9.24;59.16
43772;HTU21D;59066;54.782;32.024;2023-05-01T00:03:32;9.27;59.09
43772;HTU21D;59066;54.782;32.024;2023-05-01T00:06:01;9.32;59.15
43772;HTU21D;59066;54.782;32.024;2023-05-01T00:08:29;9.27;59.13
43772;HTU21D;59066;54.782;32.024;2023-05-01T00:11:06;9.32;59.28
43772;HTU21D;59066;54.782;32.024;2023-05-01T00:13:38;9.32;58.99
43772;HTU21D;59066;54.782;32.024;2023-05-01T00:16:10;9.33;58.90
43772;HTU21D;59066;54.782;32.024;2023-05-01T00:18:38;9.31;58.87
43772;HTU21D;59066;54.782;32.024;2023-05-01T00:21:05;9.23;58.96
43772;HTU21D;59066;54.782;32.024;2023-05-01T00:23:33;9.14;59.09
43772;HTU21D;59066;54.782;32.024;2023-05-01T00:26:01;9.10;59.15
43772;HTU21D;59066;54.782;32.024;2023-05-01T00:28:28;9.12;59.03
43772;HTU21D;59066;54.782;32.024;2023-05-01T00:30:56;9.10;58.97
43772;HTU21D;59066;54.782;32.024;2023-05-01T00:33:24;9.01;59.27
43772;HTU21D;59066;54.782;32.024;2023-05-01T00:35:51;8.87;59.78
43772;HTU21D;59066;54.782;32.024;2023-05-01T00:38:19;8.81;59.86
43772;HTU21D;59066;54.782;32.024;2023-05-01T00:40:46;8.80;59.83
43772;HTU21D;59066;54.782;32.024;2023-05-01T00:43:14;8.59;60.52
43772;HTU21D;59066;54.782;32.024;2023-05-01T00:45:43;8.58;60.42
43772;HTU21D;59066;54.782;32.024;2023-05-01T00:48:14;8.56;60.22
43772;HTU21D;59066;54.782;32.024;2023-05-01T00:50:43;8.45;60.71
43772;HTU21D;59066;54.782;32.024;2023-05-01T00:53:12;8.36;60.83
43772;HTU21D;59066;54.782;32.024;2023-05-01T00:55:41;8.31;60.97
43772;HTU21D;59066;54.782;32.024;2023-05-01T00:58:09;8.24;60.98
43772;HTU21D;59066;54.782;32.024;2023-05-01T01:00:38;8.13;61.47
43772;HTU21D;59066;54.782;32.024;2023-05-01T01:03:05;8.11;61.36
43772;HTU21D;59066;54.782;32.024;2023-05-01T01:05:37;8.01;61.76
43772;HTU21D;59066;54.782;32.024;2023-05-01T01:08:18;7.93;62.05
43772;HTU21D;59066;54.782;32.024;2023-05-01T01:14:08;7.79;62.67
43772;HTU21D;59066;54.782;32.024;2023-05-01T01:22:11;7.63;62.88
43772;HTU21D;59066;54.782;32.024;2023-05-01T01:27:48;7.44;63.70
43772;HTU21D;59066;54.782;32.024;2023-05-01T01:36:16;7.25;64.47
43772;HTU21D;59066;54.782;32.024;2023-05-01T01:38:48;7.27;64.46
43772;HTU21D;59066;54.782;32.024;2023-05-01T01:41:25;7.23;64.48
43772;HTU21D;59066;54.782;32.024;2023-05-01T01:47:04;7.10;65.20
43772;HTU21D;59066;54.782;32.024;2023-05-01T01:49:33;7.08;65.27
43772;HTU21D;59066;54.782;32.024;2023-05-01T01:52:05;6.98;65.60
43772;HTU21D;59066;54.782;32.024;2023-05-01T01:54:58;6.88;65.76
43772;HTU21D;59066;54.782;32.024;2023-05-01T01:57:28;6.79;66.25
43772;HTU21D;59066;54.782;32.024;2023-05-01T01:59:56;6.81;66.53
43772;HTU21D;59066;54.782;32.024;2023-05-01T02:02:25;6.75;66.62
43772;HTU21D;59066;54.782;32.024;2023-05-01T02:04:54;6.73;66.81
43772;HTU21D;59066;54.782;32.024;2023-05-01T02:07:27;6.73;66.85
43772;HTU21D;59066;54.782;32.024;2023-05-01T02:09:55;6.70;67.19
43772;HTU21D;59066;54.782;32.024;2023-05-01T02:12:24;6.66;67.26
43772;HTU21D;59066;54.782;32.024;2023-05-01T02:14:53;6.56;67.78
43772;HTU21D;59066;54.782;32.024;2023-05-01T02:17:26;6.48;68.03
43772;HTU21D;59066;54.782;32.024;2023-05-01T02:19:56;6.46;68.15
43772;HTU21D;59066;54.782;32.024;2023-05-01T02:22:25;6.38;68.42
43772;HTU21D;59066;54.782;32.024;2023-05-01T02:24:55;6.29;68.85
43772;HTU21D;59066;54.782;32.024;2023-05-01T02:27:31;6.26;68.87
43772;HTU21D;59066;54.782;32.024;2023-05-01T02:30:01;6.22;69.31
43772;HTU21D;59066;54.782;32.024;2023-05-01T02:32:29;6.25;68.91
43772;HTU21D;59066;54.782;32.024;2023-05-01T02:34:58;6.19;69.11
43772;HTU21D;59066;54.782;32.024;2023-05-01T02:37:27;6.11;69.82
43772;HTU21D;59066;54.782;32.024;2023-05-01T02:39:57;6.04;69.84
43772;HTU21D;59066;54.782;32.024;2023-05-01T02:42:26;6.05;69.81
43772;HTU21D;59066;54.782;32.024;2023-05-01T02:44:57;5.95;70.23
43772;HTU21D;59066;54.782;32.024;2023-05-01T02:47:27;5.96;70.43
43772;HTU21D;59066;54.782;32.024;2023-05-01T02:49:58;5.84;70.89
43772;HTU21D;59066;54.782;32.024;2023-05-01T02:52:27;5.84;70.84
43772;HTU21D;59066;54.782;32.024;2023-05-01T02:55:10;5.85;70.77
43772;HTU21D;59066;54.782;32.024;2023-05-01T02:57:38;5.89;70.64
43772;HTU21D;59066;54.782;32.024;2023-05-01T03:00:06;5.92;70.58
43772;HTU21D;59066;54.782;32.024;2023-05-01T03:02:35;5.99;70.29
43772;HTU21D;59066;54.782;32.024;2023-05-01T03:05:03;5.92;70.23
43772;HTU21D;59066;54.782;32.024;2023-05-01T03:07:31;5.80;70.45
43772;HTU21D;59066;54.782;32.024;2023-05-01T03:10:05;5.77;70.61
43772;HTU21D;59066;54.782;32.024;2023-05-01T03:12:33;5.71;71.04
43772;HTU21D;59066;54.782;32.024;2023-05-01T03:15:01;5.75;70.98
43772;HTU21D;59066;54.782;32.024;2023-05-01T03:17:29;5.72;71.03
43772;HTU21D;59066;54.782;32.024;2023-05-01T03:19:57;5.67;71.32
43772;HTU21D;59066;54.782;32.024;2023-05-01T03:22:43;5.62;71.40
43772;HTU21D;59066;54.782;32.024;2023-05-01T03:25:11;5.63;71.24
43772;HTU21D;59066;54.782;32.024;2023-05-01T03:27:39;5.70;71.26
43772;HTU21D;59066;54.782;32.024;2023-05-01T03:30:08;5.75;70.80
43772;HTU21D;59066;54.782;32.024;2023-05-01T03:32:39;5.75;70.87
43772;HTU21D;59066;54.782;32.024;2023-05-01T03:35:14;5.75;71.05
43772;HTU21D;59066;54.782;32.024;2023-05-01T03:37:42;5.75;70.84
43772;HTU21D;59066;54.782;32.024;2023-05-01T03:40:14;5.78;71.05
43772;HTU21D;59066;54.782;32.024;2023-05-01T03:43:00;5.85;70.70
43772;HTU21D;59066;54.782;32.024;2023-05-01T03:45:28;5.93;70.41
43772;HTU21D;59066;54.782;32.024;2023-05-01T03:47:55;5.86;70.19
43772;HTU21D;59066;54.782;32.024;2023-05-01T03:50:23;5.86;70.60
43772;HTU21D;59066;54.782;32.024;2023-05-01T03:52:51;5.81;70.72
43772;HTU21D;59066;54.782;32.024;2023-05-01T03:55:19;5.86;70.32
43772;HTU21D;59066;54.782;32.024;2023-05-01T03:57:47;5.82;70.42
43772;HTU21D;59066;54.782;32.024;2023-05-01T04:00:15;5.90;70.17
43772;HTU21D;59066;54.782;32.024;2023-05-01T04:02:44;5.94;69.92
43772;HTU21D;59066;54.782;32.024;2023-05-01T04:05:16;6.02;69.55
43772;HTU21D;59066;54.782;32.024;2023-05-01T04:07:49;6.09;68.88
43772;HTU21D;59066;54.782;32.024;2023-05-01T04:10:16;6.05;69.02
43772;HTU21D;59066;54.782;32.024;2023-05-01T04:12:55;6.00;68.60
43772;HTU21D;59066;54.782;32.024;2023-05-01T04:15:23;6.02;68.46
43772;HTU21D;59066;54.782;32.024;2023-05-01T04:17:51;6.04;68.35
43772;HTU21D;59066;54.782;32.024;2023-05-01T04:20:21;6.07;67.73
43772;HTU21D;59066;54.782;32.024;2023-05-01T04:22:48;6.13;67.27
43772;HTU21D;59066;54.782;32.024;2023-05-01T04:25:16;6.15;66.48
43772;HTU21D;59066;54.782;32.024;2023-05-01T04:27:46;6.20;65.84
43772;HTU21D;59066;54.782;32.024;2023-05-01T04:30:14;6.20;64.74
43772;HTU21D;59066;54.782;32.024;2023-05-01T04:32:42;6.20;64.32
43772;HTU21D;59066;54.782;32.024;2023-05-01T04:35:10;6.25;63.60
43772;HTU21D;59066;54.782;32.024;2023-05-01T04:37:41;6.31;63.15
43772;HTU21D;59066;54.782;32.024;2023-05-01T04:40:10;6.30;62.20
43772;HTU21D;59066;54.782;32.024;2023-05-01T04:42:38;6.37;61.65
43772;HTU21D;59066;54.782;32.024;2023-05-01T04:45:10;6.48;61.28
43772;HTU21D;59066;54.782;32.024;2023-05-01T04:47:38;6.44;59.87
43772;HTU21D;59066;54.782;32.024;2023-05-01T04:50:06;6.42;59.14
43772;HTU21D;59066;54.782;32.024;2023-05-01T04:52:34;6.44;57.94
43772;HTU21D;59066;54.782;32.024;2023-05-01T04:55:03;6.50;58.06
43772;HTU21D;59066;54.782;32.024;2023-05-01T04:57:34;6.53;57.48
43772;HTU21D;59066;54.782;32.024;2023-05-01T05:00:06;6.61;57.21
43772;HTU21D;59066;54.782;32.024;2023-05-01T05:02:44;6.66;56.85
43772;HTU21D;59066;54.782;32.024;2023-05-01T05:05:13;6.65;55.13
43772;HTU21D;59066;54.782;32.024;2023-05-01T05:07:41;6.63;55.05
43772;HTU21D;59066;54.782;32.024;2023-05-01T05:10:24;6.63;54.84
43772;HTU21D;59066;54.782;32.024;2023-05-01T05:13:08;6.65;53.91
43772;HTU21D;59066;54.782;32.024;2023-05-01T05:15:37;6.66;53.23
43772;HTU21D;59066;54.782;32.024;2023-05-01T05:18:07;6.66;52.83
43772;HTU21D;59066;54.782;32.024;2023-05-01T05:20:38;6.64;52.36
43772;HTU21D;59066;54.782;32.024;2023-05-01T05:23:06;6.68;52.21
43772;HTU21D;59066;54.782;32.024;2023-05-01T05:25:34;6.78;51.63
43772;HTU21D;59066;54.782;32.024;2023-05-01T05:28:01;6.82;51.54
43772;HTU21D;59066;54.782;32.024;2023-05-01T05:30:29;6.90;51.46
43772;HTU21D;59066;54.782;32.024;2023-05-01T05:32:57;6.98;51.22
43772;HTU21D;59066;54.782;32.024;2023-05-01T05:35:24;7.01;50.56
43772;HTU21D;59066;54.782;32.024;2023-05-01T05:37:53;7.05;49.91
43772;HTU21D;59066;54.782;32.024;2023-05-01T05:40:22;7.07;49.47
43772;HTU21D;59066;54.782;32.024;2023-05-01T05:42:53;7.17;49.69
43772;HTU21D;59066;54.782;32.024;2023-05-01T05:45:21;7.24;49.12
43772;HTU21D;59066;54.782;32.024;2023-05-01T05:47:50;7.37;49.23
43772;HTU21D;59066;54.782;32.024;2023-05-01T05:50:18;7.44;48.20
43772;HTU21D;59066;54.782;32.024;2023-05-01T05:52:46;7.37;47.53
43772;HTU21D;59066;54.782;32.024;2023-05-01T05:55:14;7.37;47.25
43772;HTU21D;59066;54.782;32.024;2023-05-01T05:57:51;7.42;47.13
43772;HTU21D;59066;54.782;32.024;2023-05-01T06:00:19;7.46;47.41
43772;HTU21D;59066;54.782;32.024;2023-05-01T06:02:49;7.56;47.18
43772;HTU21D;59066;54.782;32.024;2023-05-01T06:05:18;7.53;46.86
43772;HTU21D;59066;54.782;32.024;2023-05-01T06:07:45;7.43;46.53
43772;HTU21D;59066;54.782;32.024;2023-05-01T06:10:13;7.41;46.38
43772;HTU21D;59066;54.782;32.024;2023-05-01T06:12:41;7.38;46.72
43772;HTU21D;59066;54.782;32.024;2023-05-01T06:15:10;7.47;46.89
43772;HTU21D;59066;54.782;32.024;2023-05-01T06:17:42;7.40;47.19
43772;HTU21D;59066;54.782;32.024;2023-05-01T06:20:10;7.50;47.35
43772;HTU21D;59066;54.782;32.024;2023-05-01T06:22:38;7.59;47.47
43772;HTU21D;59066;54.782;32.024;2023-05-01T06:25:13;7.56;46.64
43772;HTU21D;59066;54.782;32.024;2023-05-01T06:27:41;7.65;46.70
43772;HTU21D;59066;54.782;32.024;2023-05-01T06:30:09;7.59;46.31
43772;HTU21D;59066;54.782;32.024;2023-05-01T06:32:40;7.55;46.32
43772;HTU21D;59066;54.782;32.024;2023-05-01T06:35:10;7.58;46.48
43772;HTU21D;59066;54.782;32.024;2023-05-01T06:37:38;7.67;46.58
43772;HTU21D;59066;54.782;32.024;2023-05-01T06:40:09;7.69;46.63
43772;HTU21D;59066;54.782;32.024;2023-05-01T06:42:37;7.76;46.73
43772;HTU21D;59066;54.782;32.024;2023-05-01T06:45:06;7.89;46.74
43772;HTU21D;59066;54.782;32.024;2023-05-01T06:47:34;7.93;47.00
43772;HTU21D;59066;54.782;32.024;2023-05-01T06:50:02;7.88;46.83
43772;HTU21D;59066;54.782;32.024;2023-05-01T06:52:32;7.77;46.87
43772;HTU21D;59066;54.782;32.024;2023-05-01T06:55:00;7.69;46.97
43772;HTU21D;59066;54.782;32.024;2023-05-01T06:57:27;7.68;46.95
43772;HTU21D;59066;54.782;32.024;2023-05-01T06:59:55;7.69;46.89
43772;HTU21D;59066;54.782;32.024;2023-05-01T07:02:23;7.68;47.19
43772;HTU21D;59066;54.782;32.024;2023-05-01T07:04:51;7.71;47.24
43772;HTU21D;59066;54.782;32.024;2023-05-01T07:07:19;7.75;47.25
43772;HTU21D;59066;54.782;32.024;2023-05-01T07:09:46;7.88;47.35
43772;HTU21D;59066;54.782;32.024;2023-05-01T07:12:14;8.04;47.04
43772;HTU21D;59066;54.782;32.024;2023-05-01T07:14:42;8.04;46.97
43772;HTU21D;59066;54.782;32.024;2023-05-01T07:17:10;7.99;47.39
43772;HTU21D;59066;54.782;32.024;2023-05-01T07:19:38;8.02;47.40
43772;HTU21D;59066;54.782;32.024;2023-05-01T07:22:05;8.07;47.20
43772;HTU21D;59066;54.782;32.024;2023-05-01T07:24:33;8.06;46.78
43772;HTU21D;59066;54.782;32.024;2023-05-01T07:27:00;8.06;46.86
43772;HTU21D;59066;54.782;32.024;2023-05-01T07:29:28;8.16;46.87
43772;HTU21D;59066;54.782;32.024;2023-05-01T07:31:56;8.32;46.62
43772;HTU21D;59066;54.782;32.024;2023-05-01T07:34:23;8.27;46.65
43772;HTU21D;59066;54.782;32.024;2023-05-01T07:36:51;8.29;46.10
43772;HTU21D;59066;54.782;32.024;2023-05-01T07:39:18;8.33;45.69
43772;HTU21D;59066;54.782;32.024;2023-05-01T07:41:46;8.41;45.67
43772;HTU21D;59066;54.782;32.024;2023-05-01T07:44:13;8.44;45.20
43772;HTU21D;59066;54.782;32.024;2023-05-01T07:46:41;8.47;45.10
43772;HTU21D;59066;54.782;32.024;2023-05-01T07:49:09;8.63;44.76
43772;HTU21D;59066;54.782;32.024;2023-05-01T07:51:36;8.75;44.71
43772;HTU21D;59066;54.782;32.024;2023-05-01T07:54:04;8.80;44.53
43772;HTU21D;59066;54.782;32.024;2023-05-01T07:56:32;8.94;44.58
43772;HTU21D;59066;54.782;32.024;2023-05-01T07:58:59;9.07;44.38
43772;HTU21D;59066;54.782;32.024;2023-05-01T08:01:27;9.09;43.84
43772;HTU21D;59066;54.782;32.024;2023-05-01T08:03:54;9.15;43.64
43772;HTU21D;59066;54.782;32.024;2023-05-01T08:06:22;9.23;43.23
43772;HTU21D;59066;54.782;32.024;2023-05-01T08:08:50;9.38;43.24
43772;HTU21D;59066;54.782;32.024;2023-05-01T08:11:18;9.48;42.89
43772;HTU21D;59066;54.782;32.024;2023-05-01T08:13:46;9.53;42.92
43772;HTU21D;59066;54.782;32.024;2023-05-01T08:16:13;9.45;42.42
43772;HTU21D;59066;54.782;32.024;2023-05-01T08:18:41;9.46;42.50
43772;HTU21D;59066;54.782;32.024;2023-05-01T08:21:09;9.51;42.48
43772;HTU21D;59066;54.782;32.024;2023-05-01T08:23:37;9.55;42.26
43772;HTU21D;59066;54.782;32.024;2023-05-01T08:26:05;9.53;42.28
43772;HTU21D;59066;54.782;32.024;2023-05-01T08:28:35;9.62;41.79
43772;HTU21D;59066;54.782;32.024;2023-05-01T08:31:03;9.53;41.30
43772;HTU21D;59066;54.782;32.024;2023-05-01T08:33:31;9.60;40.94
43772;HTU21D;59066;54.782;32.024;2023-05-01T08:35:59;9.60;41.33
43772;HTU21D;59066;54.782;32.024;2023-05-01T08:38:26;9.68;41.24
43772;HTU21D;59066;54.782;32.024;2023-05-01T08:40:54;9.75;41.13
43772;HTU21D;59066;54.782;32.024;2023-05-01T08:43:24;9.86;40.62
43772;HTU21D;59066;54.782;32.024;2023-05-01T08:45:53;9.76;40.01
43772;HTU21D;59066;54.782;32.024;2023-05-01T08:48:23;9.74;39.44
43772;HTU21D;59066;54.782;32.024;2023-05-01T08:50:54;9.89;39.50
43772;HTU21D;59066;54.782;32.024;2023-05-01T08:53:23;9.89;39.10
43772;HTU21D;59066;54.782;32.024;2023-05-01T08:55:53;9.99;39.38
43772;HTU21D;59066;54.782;32.024;2023-05-01T08:58:23;9.99;39.21
43772;HTU21D;59066;54.782;32.024;2023-05-01T09:00:52;9.99;38.90
43772;HTU21D;59066;54.782;32.024;2023-05-01T09:03:23;10.11;39.23
43772;HTU21D;59066;54.782;32.024;2023-05-01T09:05:52;10.25;39.32
43772;HTU21D;59066;54.782;32.024;2023-05-01T09:08:20;10.15;38.14
43772;HTU21D;59066;54.782;32.024;2023-05-01T09:10:53;10.26;37.96
43772;HTU21D;59066;54.782;32.024;2023-05-01T09:13:24;10.35;37.82
43772;HTU21D;59066;54.782;32.024;2023-05-01T09:15:51;10.72;37.20
43772;HTU21D;59066;54.782;32.024;2023-05-01T09:18:19;10.54;36.48
43772;HTU21D;59066;54.782;32.024;2023-05-01T09:20:46;10.64;36.70
43772;HTU21D;59066;54.782;32.024;2023-05-01T09:23:14;10.72;36.21
43772;HTU21D;59066;54.782;32.024;2023-05-01T09:25:42;10.68;36.48
43772;HTU21D;59066;54.782;32.024;2023-05-01T09:28:10;10.73;36.41
43772;HTU21D;59066;54.782;32.024;2023-05-01T09:30:38;10.60;36.42
43772;HTU21D;59066;54.782;32.024;2023-05-01T09:33:11;10.58;36.74
43772;HTU21D;59066;54.782;32.024;2023-05-01T09:38:42;10.86;35.75
43772;HTU21D;59066;54.782;32.024;2023-05-01T09:41:09;11.10;35.68
43772;HTU21D;59066;54.782;32.024;2023-05-01T09:43:37;11.12;35.21
43772;HTU21D;59066;54.782;32.024;2023-05-01T09:46:07;11.04;35.79
43772;HTU21D;59066;54.782;32.024;2023-05-01T09:48:39;10.98;35.86
43772;HTU21D;59066;54.782;32.024;2023-05-01T09:53:50;10.69;35.44
43772;HTU21D;59066;54.782;32.024;2023-05-01T09:56:19;10.73;35.45
43772;HTU21D;59066;54.782;32.024;2023-05-01T09:58:50;11.12;35.19
43772;HTU21D;59066;54.782;32.024;2023-05-01T10:01:36;11.42;34.12
43772;HTU21D;59066;54.782;32.024;2023-05-01T10:04:04;11.32;35.37
43772;HTU21D;59066;54.782;32.024;2023-05-01T10:06:33;11.58;35.58
43772;HTU21D;59066;54.782;32.024;2023-05-01T10:09:01;11.87;35.28
43772;HTU21D;59066;54.782;32.024;2023-05-01T10:11:29;12.15;35.31
43772;HTU21D;59066;54.782;32.024;2023-05-01T10:14:09;12.53;34.64
43772;HTU21D;59066;54.782;32.024;2023-05-01T10:16:37;12.74;34.94
43772;HTU21D;59066;54.782;32.024;2023-05-01T10:19:05;12.84;34.45
43772;HTU21D;59066;54.782;32.024;2023-05-01T10:21:34;12.53;34.66
43772;HTU21D;59066;54.782;32.024;2023-05-01T10:24:02;12.78;34.73
43772;HTU21D;59066;54.782;32.024;2023-05-01T10:26:34;13.41;34.22
43772;HTU21D;59066;54.782;32.024;2023-05-01T10:29:03;13.99;33.92
43772;HTU21D;59066;54.782;32.024;2023-05-01T10:31:31;13.97;32.76
43772;HTU21D;59066;54.782;32.024;2023-05-01T10:33:59;14.01;32.68
43772;HTU21D;59066;54.782;32.024;2023-05-01T10:36:37;14.39;31.32
43772;HTU21D;59066;54.782;32.024;2023-05-01T10:39:06;14.69;31.88
43772;HTU21D;59066;54.782;32.024;2023-05-01T10:44:25;14.81;31.08
43772;HTU21D;59066;54.782;32.024;2023-05-01T10:46:54;15.24;31.09
43772;HTU21D;59066;54.782;32.024;2023-05-01T10:49:22;16.02;29.95
43772;HTU21D;59066;54.782;32.024;2023-05-01T10:52:00;16.10;27.87
43772;HTU21D;59066;54.782;32.024;2023-05-01T10:57:00;15.98;28.10
43772;HTU21D;59066;54.782;32.024;2023-05-01T11:02:26;15.65;28.00
43772;HTU21D;59066;54.782;32.024;2023-05-01T11:04:54;15.45;27.74
43772;HTU21D;59066;54.782;32.024;2023-05-01T11:07:23;15.63;27.53
43772;HTU21D;59066;54.782;32.024;2023-05-01T11:09:53;16.37;27.54
43772;HTU21D;59066;54.782;32.024;2023-05-01T11:12:48;17.02;25.31
43772;HTU21D;59066;54.782;32.024;2023-05-01T11:15:30;16.90;25.64
43772;HTU21D;59066;54.782;32.024;2023-05-01T11:18:00;17.61;26.17
43772;HTU21D;59066;54.782;32.024;2023-05-01T11:23:02;18.67;25.12
43772;HTU21D;59066;54.782;32.024;2023-05-01T11:25:30;18.84;24.16
43772;HTU21D;59066;54.782;32.024;2023-05-01T11:28:01;19.13;22.98
43772;HTU21D;59066;54.782;32.024;2023-05-01T11:30:36;18.95;22.08
43772;HTU21D;59066;54.782;32.024;2023-05-01T11:33:04;18.25;22.56
43772;HTU21D;59066;54.782;32.024;2023-05-01T11:35:33;17.25;22.90
43772;HTU21D;59066;54.782;32.024;2023-05-01T11:38:01;17.03;22.98
43772;HTU21D;59066;54.782;32.024;2023-05-01T11:40:30;16.37;22.45
43772;HTU21D;59066;54.782;32.024;2023-05-01T11:45:30;17.45;22.69
43772;HTU21D;59066;54.782;32.024;2023-05-01T11:47:58;18.13;22.44
43772;HTU21D;59066;54.782;32.024;2023-05-01T11:50:33;18.49;21.40
43772;HTU21D;59066;54.782;32.024;2023-05-01T11:53:12;19.38;21.63
43772;HTU21D;59066;54.782;32.024;2023-05-01T11:55:44;19.95;21.19
43772;HTU21D;59066;54.782;32.024;2023-05-01T11:58:12;20.11;20.18
43772;HTU21D;59066;54.782;32.024;2023-05-01T12:00:40;20.84;19.66
43772;HTU21D;59066;54.782;32.024;2023-05-01T12:03:12;21.38;19.17
43772;HTU21D;59066;54.782;32.024;2023-05-01T12:05:42;21.94;18.67
43772;HTU21D;59066;54.782;32.024;2023-05-01T12:08:15;22.58;17.12
43772;HTU21D;59066;54.782;32.024;2023-05-01T12:10:53;22.01;16.24
43772;HTU21D;59066;54.782;32.024;2023-05-01T12:13:24;20.41;17.48
43772;HTU21D;59066;54.782;32.024;2023-05-01T12:15:54;20.16;17.25
43772;HTU21D;59066;54.782;32.024;2023-05-01T12:18:22;19.15;17.46
43772;HTU21D;59066;54.782;32.024;2023-05-01T12:20:52;18.88;17.51
43772;HTU21D;59066;54.782;32.024;2023-05-01T12:23:34;18.06;17.96
43772;HTU21D;59066;54.782;32.024;2023-05-01T12:26:15;17.87;18.02
43772;HTU21D;59066;54.782;32.024;2023-05-01T12:28:59;17.85;17.95
43772;HTU21D;59066;54.782;32.024;2023-05-01T12:31:28;18.48;18.34
43772;HTU21D;59066;54.782;32.024;2023-05-01T12:33:57;19.63;17.85
43772;HTU21D;59066;54.782;32.024;2023-05-01T12:36:28;19.62;17.07
43772;HTU21D;59066;54.782;32.024;2023-05-01T12:39:01;19.44;16.90
43772;HTU21D;59066;54.782;32.024;2023-05-01T12:44:26;19.51;16.24
43772;HTU21D;59066;54.782;32.024;2023-05-01T12:47:03;20.73;15.40
43772;HTU21D;59066;54.782;32.024;2023-05-01T12:49:31;21.39;16.35
43772;HTU21D;59066;54.782;32.024;2023-05-01T12:52:00;22.22;15.80
43772;HTU21D;59066;54.782;32.024;2023-05-01T12:59:39;23.76;14.26
43772;HTU21D;59066;54.782;32.024;2023-05-01T13:02:08;24.43;13.66
43772;HTU21D;59066;54.782;32.024;2023-05-01T13:04:38;24.17;13.39
43772;HTU21D;59066;54.782;32.024;2023-05-01T13:07:12;24.64;11.79
43772;HTU21D;59066;54.782;32.024;2023-05-01T13:09:52;25.17;11.43
43772;HTU21D;59066;54.782;32.024;2023-05-01T13:12:19;25.03;12.22
43772;HTU21D;59066;54.782;32.024;2023-05-01T13:14:48;24.91;11.68
43772;HTU21D;59066;54.782;32.024;2023-05-01T13:17:26;25.15;10.54
43772;HTU21D;59066;54.782;32.024;2023-05-01T13:20:01;25.30;10.90
43772;HTU21D;59066;54.782;32.024;2023-05-01T13:22:34;25.37;10.66
43772;HTU21D;59066;54.782;32.024;2023-05-01T13:25:04;25.79;11.04
43772;HTU21D;59066;54.782;32.024;2023-05-01T13:27:31;26.02;10.86
43772;HTU21D;59066;54.782;32.024;2023-05-01T13:29:59;26.38;10.79
43772;HTU21D;59066;54.782;32.024;2023-05-01T13:32:30;26.71;10.20
43772;HTU21D;59066;54.782;32.024;2023-05-01T13:35:01;27.13;9.44
43772;HTU21D;59066;54.782;32.024;2023-05-01T13:37:29;26.17;9.59
43772;HTU21D;59066;54.782;32.024;2023-05-01T13:39:56;24.71;9.91
43772;HTU21D;59066;54.782;32.024;2023-05-01T13:42:25;23.21;10.63
43772;HTU21D;59066;54.782;32.024;2023-05-01T13:44:54;22.49;10.85
43772;HTU21D;59066;54.782;32.024;2023-05-01T13:47:24;21.69;11.25
43772;HTU21D;59066;54.782;32.024;2023-05-01T13:49:53;20.80;11.54
43772;HTU21D;59066;54.782;32.024;2023-05-01T13:52:20;20.16;11.86
43772;HTU21D;59066;54.782;32.024;2023-05-01T13:54:51;20.10;12.34
43772;HTU21D;59066;54.782;32.024;2023-05-01T13:57:21;20.78;12.17
43772;HTU21D;59066;54.782;32.024;2023-05-01T13:59:49;21.68;12.01
43772;HTU21D;59066;54.782;32.024;2023-05-01T14:04:50;23.02;11.86
43772;HTU21D;59066;54.782;32.024;2023-05-01T14:07:19;23.72;11.52
43772;HTU21D;59066;54.782;32.024;2023-05-01T14:09:57;24.08;10.43
43772;HTU21D;59066;54.782;32.024;2023-05-01T14:12:30;24.30;11.00
43772;HTU21D;59066;54.782;32.024;2023-05-01T14:14:58;24.18;10.78
43772;HTU21D;59066;54.782;32.024;2023-05-01T14:17:31;23.70;10.91
43772;HTU21D;59066;54.782;32.024;2023-05-01T14:19:59;23.46;10.50
43772;HTU21D;59066;54.782;32.024;2023-05-01T14:22:30;22.24;10.82
43772;HTU21D;59066;54.782;32.024;2023-05-01T14:25:04;21.62;11.14
43772;HTU21D;59066;54.782;32.024;2023-05-01T14:27:32;21.24;11.52
43772;HTU21D;59066;54.782;32.024;2023-05-01T14:30:00;21.81;11.51
43772;HTU21D;59066;54.782;32.024;2023-05-01T14:32:29;22.69;11.15
43772;HTU21D;59066;54.782;32.024;2023-05-01T14:34:59;23.27;10.69
43772;HTU21D;59066;54.782;32.024;2023-05-01T14:37:30;22.82;10.88
43772;HTU21D;59066;54.782;32.024;2023-05-01T14:39:58;22.11;11.25
43772;HTU21D;59066;54.782;32.024;2023-05-01T14:42:26;21.16;11.66
43772;HTU21D;59066;54.782;32.024;2023-05-01T14:44:53;21.46;11.68
43772;HTU21D;59066;54.782;32.024;2023-05-01T14:47:21;21.05;11.62
43772;HTU21D;59066;54.782;32.024;2023-05-01T14:49:50;19.79;12.19
43772;HTU21D;59066;54.782;32.024;2023-05-01T14:52:20;18.57;12.91
43772;HTU21D;59066;54.782;32.024;2023-05-01T14:54:48;17.93;13.26
43772;HTU21D;59066;54.782;32.024;2023-05-01T14:57:15;17.56;13.52
43772;HTU21D;59066;54.782;32.024;2023-05-01T14:59:43;17.01;13.83
43772;HTU21D;59066;54.782;32.024;2023-05-01T15:02:11;16.85;14.02
43772;HTU21D;59066;54.782;32.024;2023-05-01T15:04:38;16.63;14.30
43772;HTU21D;59066;54.782;32.024;2023-05-01T15:07:07;16.25;14.74
43772;HTU21D;59066;54.782;32.024;2023-05-01T15:09:34;15.75;15.19
43772;HTU21D;59066;54.782;32.024;2023-05-01T15:12:02;15.57;15.54
43772;HTU21D;59066;54.782;32.024;2023-05-01T15:14:32;15.36;15.82
43772;HTU21D;59066;54.782;32.024;2023-05-01T15:17:00;15.23;16.15
43772;HTU21D;59066;54.782;32.024;2023-05-01T15:19:27;15.45;16.16
43772;HTU21D;59066;54.782;32.024;2023-05-01T15:21:55;15.21;16.53
43772;HTU21D;59066;54.782;32.024;2023-05-01T15:24:23;15.32;16.69
43772;HTU21D;59066;54.782;32.024;2023-05-01T15:26:50;15.81;16.65
43772;HTU21D;59066;54.782;32.024;2023-05-01T15:29:18;16.05;16.92
43772;HTU21D;59066;54.782;32.024;2023-05-01T15:31:46;17.02;16.42
43772;HTU21D;59066;54.782;32.024;2023-05-01T15:34:17;17.41;16.33
43772;HTU21D;59066;54.782;32.024;2023-05-01T15:36:45;17.70;16.21
43772;HTU21D;59066;54.782;32.024;2023-05-01T15:39:12;17.98;16.08
43772;HTU21D;59066;54.782;32.024;2023-05-01T15:41:41;17.70;16.13
43772;HTU21D;59066;54.782;32.024;2023-05-01T15:44:08;17.39;16.32
43772;HTU21D;59066;54.782;32.024;2023-05-01T15:46:37;17.02;16.35
43772;HTU21D;59066;54.782;32.024;2023-05-01T15:49:06;16.39;16.80
43772;HTU21D;59066;54.782;32.024;2023-05-01T15:51:35;16.70;16.53
43772;HTU21D;59066;54.782;32.024;2023-05-01T15:54:02;16.66;16.38
43772;HTU21D;59066;54.782;32.024;2023-05-01T15:56:33;16.96;16.40
43772;HTU21D;59066;54.782;32.024;2023-05-01T15:59:04;17.37;15.98
43772;HTU21D;59066;54.782;32.024;2023-05-01T16:01:33;17.45;16.05
43772;HTU21D;59066;54.782;32.024;2023-05-01T16:04:02;17.82;15.87
43772;HTU21D;59066;54.782;32.024;2023-05-01T16:06:30;18.29;15.58
43772;HTU21D;59066;54.782;32.024;2023-05-01T16:08:58;18.54;15.46
43772;HTU21D;59066;54.782;32.024;2023-05-01T16:11:25;18.86;15.23
43772;HTU21D;59066;54.782;32.024;2023-05-01T16:13:53;18.72;15.19
43772;HTU21D;59066;54.782;32.024;2023-05-01T16:16:24;18.40;15.24